Terminal Aerodrome Forecast
Issued by NWS

Home | Current Version | Previous Version | Text Only | Print | Product List | Glossary On
Versions: 1 2 3 4 5 6 7 8 9 10 11 12 13 14 15 16 17 18 19 20 21 22 23 24 25
000
FTUS42 KRAH 231147 CCA
TAFRWI
TAF COR
KRWI 231147Z 2312/2412 22010KT P6SM SCT014 BKN019
      TEMPO 2314/2316 BKN025
     FM231600 23012G18KT P6SM BKN025
     FM231800 22012G18KT P6SM BKN035
     FM232300 21015G25KT P6SM BKN250
      TEMPO 2409/2412 BKN015=

USA.gov is the U.S. government's official web portal to all federal, state and local government web resources and services.